Time;durP1;ratioP1;P1;durP2;ratioP2;P2;SDS_P1;SDS_P2;PMS_P1;PMS_P2;Temp;Humidity;BMP_temperature;BMP_pressure;BME280_temperature;BME280_humidity;BME280_pressure;Samples;Min_cycle;Max_cycle;Signal;HPM_P1;HPM_P2
2023/01/25 00:01:35;;;;;;;24.50;19.42;;;;;;;;;;4891383;28;100178;-75
2023/01/25 00:04:02;;;;;;;23.10;19.85;;;;;;;;;;4882751;28;98701;-75
2023/01/25 00:06:28;;;;;;;22.05;19.65;;;;;;;;;;4892494;28;99334;-75
2023/01/25 00:08:55;;;;;;;27.23;20.23;;;;;;;;;;4885449;28;100287;-74
2023/01/25 00:11:21;;;;;;;23.58;18.23;;;;;;;;;;4892329;28;98250;-74
2023/01/25 00:13:47;;;;;;;24.10;19.08;;;;;;;;;;4892092;28;99389;-74
2023/01/25 00:16:14;;;;;;;22.83;20.15;;;;;;;;;;4890900;28;99142;-74
2023/01/25 00:18:40;;;;;;;24.20;20.73;;;;;;;;;;4894943;28;98265;-74
2023/01/25 00:21:13;;;;;;;22.30;17.75;;;;;;;;;;4890238;28;100096;-74
2023/01/25 00:23:40;;;;;;;25.23;20.08;;;;;;;;;;4890695;28;98239;-74
2023/01/25 00:26:06;;;;;;;22.20;19.80;;;;;;;;;;4891098;28;99760;-75
2023/01/25 00:28:33;;;;;;;22.35;18.80;;;;;;;;;;4891416;28;100047;-74
2023/01/25 00:31:00;;;;;;;25.48;21.02;;;;;;;;;;4890931;28;98517;-74
2023/01/25 00:33:29;;;;;;;23.77;21.25;;;;;;;;;;4891372;28;99881;-74
2023/01/25 00:35:56;;;;;;;27.13;19.65;;;;;;;;;;4884722;28;98872;-74
2023/01/25 00:38:28;;;;;;;22.75;16.42;;;;;;;;;;4904954;28;98496;-74
2023/01/25 00:40:56;;;;;;;23.27;16.38;;;;;;;;;;4894159;28;98406;-74
2023/01/25 00:43:22;;;;;;;19.80;14.65;;;;;;;;;;4889993;28;98863;-74
2023/01/25 00:45:49;;;;;;;23.92;20.30;;;;;;;;;;4904499;28;99678;-74
2023/01/25 00:48:15;;;;;;;25.77;20.77;;;;;;;;;;4890854;28;99046;-74
2023/01/25 00:50:41;;;;;;;25.80;21.77;;;;;;;;;;4905798;28;98104;-74
2023/01/25 00:53:08;;;;;;;26.58;20.33;;;;;;;;;;4904304;28;101415;-74
2023/01/25 00:55:34;;;;;;;23.35;20.33;;;;;;;;;;4890886;28;98822;-74
2023/01/25 00:58:01;;;;;;;25.15;20.98;;;;;;;;;;4888590;28;98423;-74
2023/01/25 01:00:27;;;;;;;27.25;21.67;;;;;;;;;;4890933;28;100299;-75
2023/01/25 01:02:55;;;;;;;23.60;20.90;;;;;;;;;;4892275;28;101337;-74
2023/01/25 01:05:22;;;;;;;25.67;20.83;;;;;;;;;;4890591;28;99234;-74
2023/01/25 01:07:48;;;;;;;27.80;22.40;;;;;;;;;;4890715;28;100131;-75
2023/01/25 01:10:15;;;;;;;25.42;20.88;;;;;;;;;;4891377;28;98171;-74
2023/01/25 01:12:41;;;;;;;25.30;20.60;;;;;;;;;;4908392;28;98369;-74
2023/01/25 01:15:08;;;;;;;25.85;20.52;;;;;;;;;;4894758;28;99328;-74
2023/01/25 01:17:35;;;;;;;28.90;21.27;;;;;;;;;;4890294;28;98221;-74
2023/01/25 01:20:02;;;;;;;23.92;20.80;;;;;;;;;;4888451;28;101086;-73
2023/01/25 01:22:29;;;;;;;24.98;20.70;;;;;;;;;;4890516;28;99995;-74
2023/01/25 01:24:55;;;;;;;22.55;19.25;;;;;;;;;;4892315;28;98318;-74
2023/01/25 01:27:21;;;;;;;24.45;20.67;;;;;;;;;;4889564;28;100115;-74
2023/01/25 01:29:48;;;;;;;25.65;19.98;;;;;;;;;;4890968;28;98517;-74
2023/01/25 01:32:14;;;;;;;25.20;21.05;;;;;;;;;;4904745;28;100296;-74
2023/01/25 01:34:41;;;;;;;26.25;20.20;;;;;;;;;;4887543;28;101505;-74
2023/01/25 01:37:07;;;;;;;24.52;20.42;;;;;;;;;;4890263;28;98881;-74
2023/01/25 01:39:34;;;;;;;24.92;20.20;;;;;;;;;;4890447;28;98522;-74
2023/01/25 01:42:00;;;;;;;23.05;19.23;;;;;;;;;;4903650;28;100013;-74
2023/01/25 01:44:42;;;;;;;24.45;20.40;;;;;;;;;;4903473;28;99810;-74
2023/01/25 01:47:14;;;;;;;22.60;18.80;;;;;;;;;;4905889;28;98659;-73
2023/01/25 01:49:44;;;;;;;23.92;18.80;;;;;;;;;;4904822;28;98285;-75
2023/01/25 01:52:16;;;;;;;25.90;20.83;;;;;;;;;;4904652;28;99562;-73
2023/01/25 01:54:46;;;;;;;23.40;19.33;;;;;;;;;;4887639;28;99243;-73
2023/01/25 01:57:15;;;;;;;26.63;20.48;;;;;;;;;;4904209;28;98306;-73
2023/01/25 01:59:47;;;;;;;23.45;19.13;;;;;;;;;;4903963;28;101223;-75
2023/01/25 02:02:14;;;;;;;28.07;20.90;;;;;;;;;;4888937;28;98993;-73
2023/01/25 02:04:41;;;;;;;25.05;21.00;;;;;;;;;;4889964;28;98279;-74
2023/01/25 02:07:28;;;;;;;25.88;21.38;;;;;;;;;;4907357;28;99459;-74
2023/01/25 02:09:54;;;;;;;;;;;;;;;;;;4897894;28;98751;-74
2023/01/25 02:12:22;;;;;;;23.48;18.85;;;;;;;;;;4905013;28;101308;-74
2023/01/25 02:14:50;;;;;;;23.60;19.80;;;;;;;;;;4890054;28;98647;-74
2023/01/25 02:17:22;;;;;;;23.52;19.65;;;;;;;;;;4889975;28;98152;-74
2023/01/25 02:19:54;;;;;;;25.70;19.25;;;;;;;;;;4889724;28;98485;-74
2023/01/25 02:22:24;;;;;;;24.67;20.87;;;;;;;;;;4897090;28;101666;-74
2023/01/25 02:25:00;;;;;;;23.88;19.83;;;;;;;;;;4903435;28;99458;-74
2023/01/25 02:27:27;;;;;;;27.13;20.20;;;;;;;;;;4906172;28;100464;-74
2023/01/25 02:29:53;;;;;;;25.65;20.77;;;;;;;;;;4891828;28;100105;-73
2023/01/25 02:32:21;;;;;;;25.10;20.42;;;;;;;;;;4904026;28;100550;-74
2023/01/25 02:34:47;;;;;;;24.27;20.45;;;;;;;;;;4889392;28;100162;-74
2023/01/25 02:37:14;;;;;;;24.88;19.80;;;;;;;;;;4903279;28;99817;-74
2023/01/25 02:39:41;;;;;;;26.58;20.13;;;;;;;;;;4898140;28;101017;-74
2023/01/25 02:42:08;;;;;;;25.30;20.95;;;;;;;;;;4903627;28;101670;-74
2023/01/25 02:44:34;;;;;;;26.38;21.65;;;;;;;;;;4892073;28;98501;-74
2023/01/25 02:47:02;;;;;;;27.50;21.63;;;;;;;;;;4888825;28;98378;-75
2023/01/25 02:49:28;;;;;;;29.33;22.38;;;;;;;;;;4886881;28;101277;-74
2023/01/25 02:51:56;;;;;;;25.55;19.83;;;;;;;;;;4890087;28;98460;-74
2023/01/25 02:54:24;;;;;;;26.25;22.67;;;;;;;;;;4903962;28;100997;-74
2023/01/25 02:56:51;;;;;;;25.33;21.17;;;;;;;;;;4889100;28;98494;-74
2023/01/25 02:59:19;;;;;;;28.70;22.33;;;;;;;;;;4889014;28;99328;-74
2023/01/25 03:01:50;;;;;;;32.78;21.17;;;;;;;;;;4891430;28;100261;-74
2023/01/25 03:04:17;;;;;;;28.48;21.52;;;;;;;;;;4891574;28;98809;-74
2023/01/25 03:06:44;;;;;;;22.92;17.83;;;;;;;;;;4892523;28;98434;-75
2023/01/25 03:09:10;;;;;;;25.42;21.58;;;;;;;;;;4891922;28;100200;-73
2023/01/25 03:11:41;;;;;;;26.55;20.52;;;;;;;;;;4906772;28;98252;-74
2023/01/25 03:14:08;;;;;;;24.60;19.05;;;;;;;;;;4893024;28;98517;-74
2023/01/25 03:16:35;;;;;;;28.17;21.70;;;;;;;;;;4906696;28;99639;-74
2023/01/25 03:19:03;;;;;;;26.63;21.17;;;;;;;;;;4906311;28;98572;-74
2023/01/25 03:21:30;;;;;;;25.38;20.45;;;;;;;;;;4890655;28;101087;-74
2023/01/25 03:23:58;;;;;;;26.52;22.65;;;;;;;;;;4906818;28;98484;-73
2023/01/25 03:26:28;;;;;;;24.27;20.05;;;;;;;;;;4885796;28;100863;-74
2023/01/25 03:29:14;;;;;;;27.70;21.77;;;;;;;;;;4907059;28;101045;-73
2023/01/25 03:31:43;;;;;;;23.52;18.88;;;;;;;;;;4907495;28;98438;-74
2023/01/25 03:34:11;;;;;;;22.25;17.15;;;;;;;;;;4900184;28;99611;-74
2023/01/25 03:36:40;;;;;;;25.80;20.90;;;;;;;;;;4910201;28;99998;-74
2023/01/25 03:39:06;;;;;;;31.63;23.75;;;;;;;;;;4889707;28;101248;-74
2023/01/25 03:41:38;;;;;;;28.40;23.75;;;;;;;;;;4891760;28;100090;-74
2023/01/25 03:44:10;;;;;;;26.30;22.88;;;;;;;;;;4906657;28;98273;-74
2023/01/25 03:46:37;;;;;;;31.58;24.27;;;;;;;;;;4905269;28;100533;-75
2023/01/25 03:49:04;;;;;;;34.90;23.60;;;;;;;;;;4891922;28;98888;-75
2023/01/25 03:51:31;;;;;;;31.23;23.23;;;;;;;;;;4906547;28;98341;-75
2023/01/25 03:53:58;;;;;;;28.95;23.77;;;;;;;;;;4885572;28;98290;-75
2023/01/25 03:56:24;;;;;;;31.42;22.98;;;;;;;;;;4890755;28;101720;-73
2023/01/25 03:58:59;;;;;;;24.98;18.42;;;;;;;;;;4909741;28;98193;-75
2023/01/25 04:01:26;;;;;;;28.98;20.63;;;;;;;;;;4906293;28;99941;-74
2023/01/25 04:03:53;;;;;;;29.35;23.05;;;;;;;;;;4891304;28;98754;-75
2023/01/25 04:06:19;;;;;;;34.42;24.35;;;;;;;;;;4906645;28;101360;-75
2023/01/25 04:08:46;;;;;;;33.75;24.20;;;;;;;;;;4905543;28;101125;-73
2023/01/25 04:11:12;;;;;;;34.38;24.30;;;;;;;;;;4891782;28;98848;-74
2023/01/25 04:13:42;;;;;;;29.05;21.30;;;;;;;;;;4884224;28;100979;-75
2023/01/25 04:16:11;;;;;;;36.10;25.67;;;;;;;;;;4889540;28;101353;-74
2023/01/25 04:18:56;;;;;;;29.80;24.13;;;;;;;;;;4892279;28;98207;-76
2023/01/25 04:21:23;;;;;;;34.53;24.77;;;;;;;;;;4890319;28;101375;-75
2023/01/25 04:23:49;;;;;;;30.65;24.35;;;;;;;;;;4891290;28;98605;-74
2023/01/25 04:26:16;;;;;;;32.88;24.77;;;;;;;;;;4891655;28;98992;-74
2023/01/25 04:28:49;;;;;;;30.45;23.88;;;;;;;;;;4904743;28;98985;-74
2023/01/25 04:31:15;;;;;;;34.40;22.40;;;;;;;;;;4899723;28;98347;-74
2023/01/25 04:33:42;;;;;;;36.08;26.80;;;;;;;;;;4906433;28;101244;-74
2023/01/25 04:36:11;;;;;;;32.17;26.17;;;;;;;;;;4888909;28;98205;-74
2023/01/25 04:38:37;;;;;;;33.42;26.05;;;;;;;;;;4891611;28;98278;-74
2023/01/25 04:41:04;;;;;;;34.55;25.40;;;;;;;;;;4908461;28;99260;-75
2023/01/25 04:43:30;;;;;;;36.17;26.08;;;;;;;;;;4905126;28;98392;-74
2023/01/25 04:46:03;;;;;;;40.80;27.52;;;;;;;;;;4905879;28;100728;-74
2023/01/25 04:48:31;;;;;;;37.88;27.10;;;;;;;;;;4905765;28;101372;-74
2023/01/25 04:51:00;;;;;;;35.40;26.88;;;;;;;;;;4886452;28;98323;-75
2023/01/25 04:53:27;;;;;;;40.13;28.88;;;;;;;;;;4890565;28;98339;-75
2023/01/25 04:55:57;;;;;;;37.47;26.17;;;;;;;;;;4905853;28;100199;-75
2023/01/25 04:58:24;;;;;;;48.42;27.80;;;;;;;;;;4908405;28;98306;-75
2023/01/25 05:00:51;;;;;;;36.08;27.05;;;;;;;;;;4895294;28;98014;-74
2023/01/25 05:03:18;;;;;;;37.42;27.17;;;;;;;;;;4893683;28;102102;-74
2023/01/25 05:05:45;;;;;;;38.67;28.10;;;;;;;;;;4905469;28;98569;-74
2023/01/25 05:08:15;;;;;;;36.40;27.90;;;;;;;;;;4889532;28;101041;-74
2023/01/25 05:10:42;;;;;;;35.00;26.25;;;;;;;;;;4905889;28;98464;-75
2023/01/25 05:13:25;;;;;;;;;;;;;;;;;;4884701;28;99157;-75
2023/01/25 05:16:01;;;;;;;35.70;26.20;;;;;;;;;;4904685;28;101219;-74
2023/01/25 05:18:27;;;;;;;37.17;27.38;;;;;;;;;;4904095;28;98920;-75
2023/01/25 05:21:01;;;;;;;36.33;26.73;;;;;;;;;;4890634;28;98279;-74
2023/01/25 05:23:27;;;;;;;45.50;30.33;;;;;;;;;;4904416;28;101863;-74
2023/01/25 05:28:39;;;;;;;39.80;29.10;;;;;;;;;;4901803;28;99088;-74
2023/01/25 05:31:15;;;;;;;43.90;29.42;;;;;;;;;;4905031;28;98315;-74
2023/01/25 05:33:41;;;;;;;38.45;28.65;;;;;;;;;;4889694;28;99834;-74
2023/01/25 05:36:08;;;;;;;43.92;30.98;;;;;;;;;;4904990;28;101923;-75
2023/01/25 05:38:36;;;;;;;41.58;30.02;;;;;;;;;;4905225;28;98817;-75
2023/01/25 05:41:03;;;;;;;41.67;30.15;;;;;;;;;;4889613;28;98284;-74
2023/01/25 05:43:30;;;;;;;39.50;28.95;;;;;;;;;;4889584;28;98585;-73
2023/01/25 05:45:57;;;;;;;40.25;29.17;;;;;;;;;;4904127;28;98259;-75
2023/01/25 05:48:24;;;;;;;51.92;28.90;;;;;;;;;;4906630;28;98962;-76
2023/01/25 05:50:51;;;;;;;35.75;26.17;;;;;;;;;;4888709;28;98380;-74
2023/01/25 05:53:27;;;;;;;41.47;29.83;;;;;;;;;;4903963;28;101664;-74
2023/01/25 05:55:55;;;;;;;43.72;29.50;;;;;;;;;;4889810;28;98926;-74
2023/01/25 05:58:21;;;;;;;43.38;29.90;;;;;;;;;;4904351;28;98409;-74
2023/01/25 06:00:48;;;;;;;41.70;30.60;;;;;;;;;;4889979;28;98900;-74
2023/01/25 06:03:25;;;;;;;45.28;30.25;;;;;;;;;;4905823;28;98979;-75
2023/01/25 06:05:56;;;;;;;43.65;30.90;;;;;;;;;;4889257;28;98293;-74
2023/01/25 06:08:23;;;;;;;42.72;29.30;;;;;;;;;;4891705;28;98330;-74
2023/01/25 06:10:51;;;;;;;42.53;30.05;;;;;;;;;;4914512;28;98277;-74
2023/01/25 06:13:18;;;;;;;45.95;30.05;;;;;;;;;;4911297;28;99679;-75
2023/01/25 06:15:54;;;;;;;46.45;31.67;;;;;;;;;;4887901;28;101571;-74
2023/01/25 06:18:39;;;;;;;39.25;29.58;;;;;;;;;;4889215;28;98558;-75
2023/01/25 06:21:21;;;;;;;44.08;29.58;;;;;;;;;;4883351;28;98406;-74
2023/01/25 06:23:48;;;;;;;45.67;29.85;;;;;;;;;;4889461;28;98974;-75
2023/01/25 06:26:15;;;;;;;42.85;30.35;;;;;;;;;;4889886;28;98259;-74
2023/01/25 06:28:42;;;;;;;42.45;30.67;;;;;;;;;;4888925;28;100008;-74
2023/01/25 06:31:12;;;;;;;41.53;30.23;;;;;;;;;;4892384;28;100241;-74
2023/01/25 06:33:39;;;;;;;47.10;31.60;;;;;;;;;;4889222;28;99781;-75
2023/01/25 06:36:07;;;;;;;42.00;29.42;;;;;;;;;;4902720;28;101317;-75
2023/01/25 06:38:33;;;;;;;43.13;31.02;;;;;;;;;;4889455;28;98835;-74
2023/01/25 06:41:01;;;;;;;42.78;30.63;;;;;;;;;;4889048;28;98830;-74
2023/01/25 06:43:28;;;;;;;50.85;33.30;;;;;;;;;;4888572;28;99071;-75
2023/01/25 06:46:01;;;;;;;43.83;30.20;;;;;;;;;;4889368;28;99249;-75
2023/01/25 06:48:28;;;;;;;42.63;30.02;;;;;;;;;;4889951;28;99631;-74
2023/01/25 06:51:02;;;;;;;45.40;29.70;;;;;;;;;;4890966;28;100078;-74
2023/01/25 06:53:30;;;;;;;41.88;28.50;;;;;;;;;;4888356;28;98151;-74
2023/01/25 06:55:57;;;;;;;42.22;29.83;;;;;;;;;;4888650;28;100660;-74
2023/01/25 06:58:24;;;;;;;43.08;28.98;;;;;;;;;;4887513;28;98322;-74
2023/01/25 07:00:50;;;;;;;43.38;29.98;;;;;;;;;;4889580;28;99325;-74
2023/01/25 07:03:16;;;;;;;42.67;29.85;;;;;;;;;;4888854;28;99613;-74
2023/01/25 07:05:43;;;;;;;47.13;30.58;;;;;;;;;;4884500;28;99028;-74
2023/01/25 07:08:09;;;;;;;44.72;30.30;;;;;;;;;;4888221;28;98713;-73
2023/01/25 07:10:36;;;;;;;45.50;30.70;;;;;;;;;;4888219;28;99995;-74
2023/01/25 07:13:02;;;;;;;45.97;32.28;;;;;;;;;;4884086;28;98836;-74
2023/01/25 07:15:28;;;;;;;44.03;30.50;;;;;;;;;;4891827;28;99730;-74
2023/01/25 07:17:55;;;;;;;42.05;30.75;;;;;;;;;;4884674;28;98506;-74
2023/01/25 07:20:31;;;;;;;46.33;31.05;;;;;;;;;;4889095;28;99981;-74
2023/01/25 07:22:57;;;;;;;52.97;32.40;;;;;;;;;;4887658;28;98963;-74
2023/01/25 07:25:27;;;;;;;44.50;31.38;;;;;;;;;;4888703;28;99635;-74
2023/01/25 07:27:54;;;;;;;46.80;30.70;;;;;;;;;;4888495;28;98691;-74
2023/01/25 07:30:20;;;;;;;47.38;32.10;;;;;;;;;;4885747;28;99637;-73
2023/01/25 07:32:47;;;;;;;45.88;30.90;;;;;;;;;;4887342;28;98272;-75
2023/01/25 07:35:13;;;;;;;49.55;31.98;;;;;;;;;;4888453;28;99378;-73
2023/01/25 07:37:39;;;;;;;44.35;31.15;;;;;;;;;;4891769;28;99934;-73
2023/01/25 07:40:06;;;;;;;42.20;29.40;;;;;;;;;;4887822;28;99537;-75
2023/01/25 07:42:32;;;;;;;46.90;32.10;;;;;;;;;;4885299;28;99411;-76
2023/01/25 07:45:11;;;;;;;41.80;28.70;;;;;;;;;;4901000;28;98380;-75
2023/01/25 07:47:38;;;;;;;49.05;32.10;;;;;;;;;;4889170;28;99694;-75
2023/01/25 07:50:05;;;;;;;44.22;31.75;;;;;;;;;;4889518;28;100478;-75
2023/01/25 07:52:31;;;;;;;45.13;32.65;;;;;;;;;;4891756;28;98387;-75
2023/01/25 07:54:58;;;;;;;51.28;34.35;;;;;;;;;;4890858;28;99694;-75
2023/01/25 07:57:24;;;;;;;44.20;30.63;;;;;;;;;;4891614;28;99093;-75
2023/01/25 07:59:51;;;;;;;47.83;31.58;;;;;;;;;;4893807;28;98343;-75
2023/01/25 08:02:17;;;;;;;47.40;33.28;;;;;;;;;;4891160;28;100064;-75
2023/01/25 08:04:44;;;;;;;48.35;33.40;;;;;;;;;;4892010;28;98315;-75
2023/01/25 08:07:11;;;;;;;46.60;33.22;;;;;;;;;;4891300;28;98743;-75
2023/01/25 08:09:38;;;;;;;46.90;32.10;;;;;;;;;;4891386;28;99626;-76
2023/01/25 08:12:05;;;;;;;48.50;31.85;;;;;;;;;;4888839;28;98304;-76
2023/01/25 08:14:33;;;;;;;45.65;32.88;;;;;;;;;;4890811;28;99486;-75
2023/01/25 08:17:00;;;;;;;43.55;29.38;;;;;;;;;;4889604;28;100212;-75
2023/01/25 08:19:27;;;;;;;52.25;33.13;;;;;;;;;;4894140;28;99662;-75
2023/01/25 08:21:53;;;;;;;47.33;31.13;;;;;;;;;;4890410;28;100252;-74
2023/01/25 08:24:20;;;;;;;47.65;31.17;;;;;;;;;;4892041;28;98350;-75
2023/01/25 08:26:47;;;;;;;47.53;32.78;;;;;;;;;;4891565;28;99012;-75
2023/01/25 08:29:13;;;;;;;43.10;30.73;;;;;;;;;;4886590;28;100265;-74
2023/01/25 08:31:42;;;;;;;51.33;33.35;;;;;;;;;;4890173;28;99241;-74
2023/01/25 08:34:09;;;;;;;46.97;28.90;;;;;;;;;;4887840;28;99539;-74
2023/01/25 08:36:36;;;;;;;46.92;29.85;;;;;;;;;;4889912;28;100084;-78
2023/01/25 08:39:04;;;;;;;49.65;32.67;;;;;;;;;;4890619;28;98381;-75
2023/01/25 08:41:31;;;;;;;49.25;31.73;;;;;;;;;;4894366;28;99823;-74
2023/01/25 08:43:57;;;;;;;45.05;31.83;;;;;;;;;;4893640;28;98407;-75
2023/01/25 08:46:26;;;;;;;44.38;31.05;;;;;;;;;;4894154;28;99403;-74
2023/01/25 08:48:56;;;;;;;47.77;33.60;;;;;;;;;;4890881;28;99255;-75
2023/01/25 08:51:23;;;;;;;50.35;32.33;;;;;;;;;;4889822;28;98353;-75
2023/01/25 08:53:50;;;;;;;51.25;33.30;;;;;;;;;;4891644;28;98753;-75
2023/01/25 08:56:16;;;;;;;51.90;34.28;;;;;;;;;;4890597;28;98153;-74
2023/01/25 08:58:44;;;;;;;47.35;32.47;;;;;;;;;;4890583;28;98362;-75
2023/01/25 09:01:11;;;;;;;49.13;32.55;;;;;;;;;;4890511;28;98657;-75
2023/01/25 09:03:42;;;;;;;50.30;33.72;;;;;;;;;;4892567;28;99304;-76
2023/01/25 09:06:09;;;;;;;49.05;32.88;;;;;;;;;;4875531;28;98534;-75
2023/01/25 09:08:39;;;;;;;50.15;34.65;;;;;;;;;;4874737;28;100005;-74
2023/01/25 09:11:07;;;;;;;49.55;33.67;;;;;;;;;;4890578;28;98321;-74
2023/01/25 09:13:34;;;;;;;45.15;32.35;;;;;;;;;;4891076;28;99457;-74
2023/01/25 09:16:04;;;;;;;47.97;32.45;;;;;;;;;;4890564;28;98978;-75
2023/01/25 09:18:31;;;;;;;48.40;32.03;;;;;;;;;;4890953;28;98391;-74
2023/01/25 09:21:04;;;;;;;48.78;33.08;;;;;;;;;;4886383;28;98086;-74
2023/01/25 09:23:31;;;;;;;63.03;34.85;;;;;;;;;;4872122;28;99071;-74
2023/01/25 09:26:05;;;;;;;53.70;32.17;;;;;;;;;;4873994;28;98309;-74
2023/01/25 09:28:32;;;;;;;50.35;35.13;;;;;;;;;;4871615;28;100136;-75
2023/01/25 09:31:00;;;;;;;55.25;34.88;;;;;;;;;;4872000;28;98292;-75
2023/01/25 09:34:21;;;;;;;54.38;34.17;;;;;;;;;;4865365;28;98263;-75
2023/01/25 09:36:47;;;;;;;51.10;35.35;;;;;;;;;;4871674;28;99947;-76
2023/01/25 09:39:14;;;;;;;56.33;35.45;;;;;;;;;;4871123;28;98297;-74
2023/01/25 09:41:54;;;;;;;51.10;31.05;;;;;;;;;;4871967;28;98742;-75
2023/01/25 09:44:26;;;;;;;50.70;32.92;;;;;;;;;;4871739;28;99846;-74
2023/01/25 09:46:57;;;;;;;50.88;34.05;;;;;;;;;;4885199;28;99001;-75
2023/01/25 09:49:26;;;;;;;52.75;34.35;;;;;;;;;;4892913;28;99470;-75
2023/01/25 09:52:01;;;;;;;50.78;36.15;;;;;;;;;;4888963;28;98338;-75
2023/01/25 09:54:30;;;;;;;53.90;35.20;;;;;;;;;;4889095;28;98216;-74
2023/01/25 09:57:01;;;;;;;51.38;34.72;;;;;;;;;;4889649;28;99198;-75
2023/01/25 09:59:29;;;;;;;59.75;37.08;;;;;;;;;;4889199;28;98296;-74
2023/01/25 10:02:00;;;;;;;51.95;35.28;;;;;;;;;;4889728;28;98889;-76
2023/01/25 10:04:27;;;;;;;57.55;36.33;;;;;;;;;;4889815;28;100305;-75
2023/01/25 10:06:57;;;;;;;54.67;36.65;;;;;;;;;;4889464;28;98835;-74
2023/01/25 10:09:38;;;;;;;58.47;36.13;;;;;;;;;;4889724;28;98635;-75
2023/01/25 10:12:12;;;;;;;53.35;36.05;;;;;;;;;;4892660;28;100517;-75
2023/01/25 10:14:39;;;;;;;54.22;35.90;;;;;;;;;;4889414;28;99544;-75
2023/01/25 10:17:10;;;;;;;59.78;37.85;;;;;;;;;;4888392;28;100185;-75
2023/01/25 10:19:43;;;;;;;57.45;37.88;;;;;;;;;;4888783;28;98236;-74
2023/01/25 10:22:15;;;;;;;57.22;39.00;;;;;;;;;;4888569;28;99238;-76
2023/01/25 10:24:42;;;;;;;59.05;39.13;;;;;;;;;;4889336;28;99072;-74
2023/01/25 10:27:16;;;;;;;56.28;38.20;;;;;;;;;;4889248;28;98687;-76
2023/01/25 10:29:43;;;;;;;55.90;36.33;;;;;;;;;;4903455;28;101457;-75
2023/01/25 10:32:13;;;;;;;58.40;39.47;;;;;;;;;;4892423;28;99909;-74
2023/01/25 10:34:45;;;;;;;55.83;38.53;;;;;;;;;;4889122;28;99619;-74
2023/01/25 10:37:27;;;;;;;56.00;35.25;;;;;;;;;;4888538;28;98909;-75
2023/01/25 10:39:59;;;;;;;54.77;37.60;;;;;;;;;;4887077;28;99296;-81
2023/01/25 10:42:28;;;;;;;61.67;38.42;;;;;;;;;;4883377;28;99515;-76
2023/01/25 10:44:54;;;;;;;55.90;35.75;;;;;;;;;;4886312;28;99418;-76
2023/01/25 10:47:32;;;;;;;56.67;37.42;;;;;;;;;;4889701;28;98866;-75
2023/01/25 10:49:59;;;;;;;58.67;37.08;;;;;;;;;;4887950;28;99468;-76
2023/01/25 10:52:27;;;;;;;64.75;39.35;;;;;;;;;;4887421;28;100057;-75
2023/01/25 10:55:11;;;;;;;60.72;39.20;;;;;;;;;;4892286;28;99622;-75
2023/01/25 10:57:41;;;;;;;59.45;38.95;;;;;;;;;;4883597;28;101291;-75
2023/01/25 11:00:18;;;;;;;56.20;37.05;;;;;;;;;;4887775;28;99292;-75
2023/01/25 11:02:46;;;;;;;60.17;38.05;;;;;;;;;;4884655;28;99591;-75
2023/01/25 11:05:18;;;;;;;66.10;41.30;;;;;;;;;;4887751;28;98962;-75
2023/01/25 11:07:45;;;;;;;55.25;39.50;;;;;;;;;;4893566;28;98419;-75
2023/01/25 11:10:26;;;;;;;64.35;41.72;;;;;;;;;;4887919;28;99643;-74
2023/01/25 11:13:11;;;;;;;61.22;38.97;;;;;;;;;;4887791;28;99175;-74
2023/01/25 11:15:39;;;;;;;57.95;36.70;;;;;;;;;;4886090;28;98279;-76
2023/01/25 11:18:11;;;;;;;70.82;39.00;;;;;;;;;;4892376;28;102179;-76
2023/01/25 11:20:37;;;;;;;56.60;35.72;;;;;;;;;;4884830;28;99889;-75
2023/01/25 11:23:18;;;;;;;57.38;36.75;;;;;;;;;;4890480;28;99258;-74
2023/01/25 11:25:44;;;;;;;53.90;33.08;;;;;;;;;;4891429;28;100075;-77
2023/01/25 11:28:11;;;;;;;62.17;38.95;;;;;;;;;;4892627;28;98361;-75
2023/01/25 11:30:37;;;;;;;56.53;36.58;;;;;;;;;;4892128;28;99895;-76
2023/01/25 11:33:08;;;;;;;58.00;34.92;;;;;;;;;;4890234;28;100242;-75
2023/01/25 11:35:35;;;;;;;55.25;35.58;;;;;;;;;;4891671;28;98287;-78
2023/01/25 11:38:04;;;;;;;60.33;37.42;;;;;;;;;;4891274;28;99550;-77
2023/01/25 11:40:59;;;;;;;65.38;37.05;;;;;;;;;;4894932;28;99063;-74
2023/01/25 11:43:26;;;;;;;58.17;36.80;;;;;;;;;;4868897;28;100107;-75
2023/01/25 11:46:01;;;;;;;58.97;37.38;;;;;;;;;;4884650;28;98978;-75
2023/01/25 11:48:45;;;;;;;49.90;33.25;;;;;;;;;;4891874;28;98283;-75
2023/01/25 11:51:32;;;;;;;58.50;35.45;;;;;;;;;;4889376;28;99774;-75
2023/01/25 11:54:04;;;;;;;62.42;37.55;;;;;;;;;;4884255;28;100287;-75
2023/01/25 11:56:43;;;;;;;53.97;34.53;;;;;;;;;;4891578;28;98745;-74
2023/01/25 11:59:12;;;;;;;57.75;37.30;;;;;;;;;;4882853;28;99595;-75
2023/01/25 12:01:45;;;;;;;60.22;35.22;;;;;;;;;;4886461;28;100110;-75
2023/01/25 12:04:30;;;;;;;64.97;37.55;;;;;;;;;;4894315;28;98379;-75
2023/01/25 12:06:58;;;;;;;58.42;35.90;;;;;;;;;;4890358;28;100041;-75
2023/01/25 12:09:30;;;;;;;63.42;37.55;;;;;;;;;;4894240;28;99972;-75
2023/01/25 12:11:59;;;;;;;58.22;37.03;;;;;;;;;;4887226;28;98881;-76
2023/01/25 12:14:25;;;;;;;54.92;34.35;;;;;;;;;;4890194;28;99056;-76
2023/01/25 12:17:03;;;;;;;56.97;36.22;;;;;;;;;;4890369;28;99860;-75
2023/01/25 12:19:53;;;;;;;64.72;36.97;;;;;;;;;;4890223;28;99537;-74
2023/01/25 12:22:22;;;;;;;59.95;33.90;;;;;;;;;;4890367;28;100058;-75
2023/01/25 12:25:19;;;;;;;59.33;36.40;;;;;;;;;;4890214;28;98346;-76
2023/01/25 12:27:57;;;;;;;64.35;34.95;;;;;;;;;;4891632;28;100011;-77
2023/01/25 12:30:41;;;;;;;50.63;33.90;;;;;;;;;;4888584;28;101244;-75
2023/01/25 12:33:30;;;;;;;56.53;34.97;;;;;;;;;;4891114;28;99883;-77
2023/01/25 12:35:59;;;;;;;59.83;33.35;;;;;;;;;;4890671;28;99980;-76
2023/01/25 12:38:29;;;;;;;59.33;35.53;;;;;;;;;;4894624;28;99630;-76
2023/01/25 12:40:58;;;;;;;56.47;36.20;;;;;;;;;;4884282;28;98807;-74
2023/01/25 12:43:28;;;;;;;63.85;37.00;;;;;;;;;;4888784;28;99182;-75
2023/01/25 12:45:56;;;;;;;57.55;36.33;;;;;;;;;;4888855;28;100022;-76
2023/01/25 12:48:30;;;;;;;55.42;35.28;;;;;;;;;;4892846;28;100603;-74
2023/01/25 12:50:57;;;;;;;56.53;35.97;;;;;;;;;;4889735;28;98665;-75
2023/01/25 12:53:37;;;;;;;63.33;37.45;;;;;;;;;;4889674;28;98918;-76
2023/01/25 12:56:05;;;;;;;62.20;36.75;;;;;;;;;;4887516;28;99171;-76
2023/01/25 12:58:31;;;;;;;56.53;35.80;;;;;;;;;;4885963;28;98290;-76
2023/01/25 13:01:24;;;;;;;62.70;36.27;;;;;;;;;;4887820;28;99228;-76
2023/01/25 13:03:53;;;;;;;51.70;33.53;;;;;;;;;;4887170;28;100212;-75
2023/01/25 13:06:38;;;;;;;61.88;37.88;;;;;;;;;;4890569;28;98306;-75
2023/01/25 13:09:23;;;;;;;56.38;34.40;;;;;;;;;;4891869;28;99349;-75
2023/01/25 13:11:49;;;;;;;51.67;32.42;;;;;;;;;;4893182;28;100157;-76
2023/01/25 13:14:19;;;;;;;58.45;35.78;;;;;;;;;;4890262;28;99830;-76
2023/01/25 13:16:52;;;;;;;53.53;34.63;;;;;;;;;;4887381;28;99214;-75
2023/01/25 13:19:34;;;;;;;52.80;33.80;;;;;;;;;;4890587;28;98431;-76
2023/01/25 13:22:01;;;;;;;53.60;34.83;;;;;;;;;;4889604;28;99551;-75
2023/01/25 13:24:29;;;;;;;50.92;33.17;;;;;;;;;;4889753;28;100331;-75
2023/01/25 13:26:55;;;;;;;59.30;36.45;;;;;;;;;;4890662;28;98972;-75
2023/01/25 13:29:34;;;;;;;55.42;33.45;;;;;;;;;;4890675;28;99727;-75
2023/01/25 13:32:01;;;;;;;54.30;35.10;;;;;;;;;;4885915;28;101162;-76
2023/01/25 13:34:34;;;;;;;57.45;34.17;;;;;;;;;;4884409;28;98323;-75
2023/01/25 13:37:17;;;;;;;55.17;32.78;;;;;;;;;;4886809;28;99243;-76
2023/01/25 13:39:44;;;;;;;55.33;35.28;;;;;;;;;;4889218;28;98407;-77
2023/01/25 13:42:10;;;;;;;47.50;30.58;;;;;;;;;;4887905;28;99521;-76
2023/01/25 13:44:41;;;;;;;49.03;30.48;;;;;;;;;;4884821;28;99885;-75
2023/01/25 13:47:11;;;;;;;50.75;33.13;;;;;;;;;;4888545;28;98813;-75
2023/01/25 13:49:41;;;;;;;52.15;30.70;;;;;;;;;;4888214;28;99532;-74
2023/01/25 13:52:14;;;;;;;52.97;32.42;;;;;;;;;;4889473;28;99711;-76
2023/01/25 13:54:44;;;;;;;54.72;34.95;;;;;;;;;;4887234;28;99755;-76
2023/01/25 13:57:18;;;;;;;54.00;32.90;;;;;;;;;;4901568;28;99485;-75
2023/01/25 13:59:44;;;;;;;56.53;34.40;;;;;;;;;;4889461;28;99115;-76
2023/01/25 14:02:17;;;;;;;58.42;33.70;;;;;;;;;;4887550;28;99997;-75
2023/01/25 14:04:45;;;;;;;58.70;34.63;;;;;;;;;;4887247;28;100128;-75
2023/01/25 14:07:14;;;;;;;61.17;34.42;;;;;;;;;;4885568;28;100590;-75
2023/01/25 14:09:42;;;;;;;54.60;33.53;;;;;;;;;;4889361;28;98659;-74
2023/01/25 14:12:09;;;;;;;54.72;33.10;;;;;;;;;;4888671;28;99968;-75
2023/01/25 14:14:36;;;;;;;57.38;34.38;;;;;;;;;;4887144;28;99865;-75
2023/01/25 14:17:13;;;;;;;64.00;36.78;;;;;;;;;;4889214;28;98732;-75
2023/01/25 14:19:43;;;;;;;60.92;37.42;;;;;;;;;;4889264;28;100056;-75
2023/01/25 14:22:29;;;;;;;59.47;35.35;;;;;;;;;;4889299;28;99832;-74
2023/01/25 14:25:03;;;;;;;60.63;37.50;;;;;;;;;;4887483;28;100594;-75
2023/01/25 14:27:29;;;;;;;60.78;35.97;;;;;;;;;;4884434;28;98139;-75
2023/01/25 14:29:56;;;;;;;64.43;37.53;;;;;;;;;;4888957;28;99736;-75
2023/01/25 14:32:24;;;;;;;60.13;37.65;;;;;;;;;;4888061;28;100535;-77